Woodbury, Connecticut
Current Conditions -  °F | °C
As of 10:15 PM on Saturday 20 Dec 2014 (Local Time) from KOXC Reporting Station
Overcast Overcast  
Wind Chill: 23°   Ceiling: 1700
Heat Index: 28°   Visibility: 10mi
Dew Point: 19°   Wind: 5mph
Humidity: 69%   Direction: 330°NNW
Pressure: 30.26"   Gusts: NA
Location:  41.54°N, 73.21°W
Report Text: KOXC 210315Z 33004KT 10SM BKN017 OVC023 M02/M07 A3026 RMK AO1
Loading
Personal Weather Stations






























Interactive Weather Map New forecast layout! Learn more

10-Day Weather Forecast

Advertisements
Track Severe Weather on mobile